createdAt,value
2019-03-26T00:00:18.816Z,2.41
2019-03-26T00:02:51.232Z,2.38
2019-03-26T00:05:23.376Z,2.32
2019-03-26T00:07:55.488Z,2.31
2019-03-26T00:10:27.562Z,2.31
2019-03-26T00:13:00.073Z,2.30
2019-03-26T00:15:33.137Z,2.27
2019-03-26T00:18:05.218Z,2.22
2019-03-26T00:20:37.649Z,2.20
2019-03-26T00:23:10.142Z,2.18
2019-03-26T00:25:42.265Z,2.13
2019-03-26T00:28:14.699Z,2.15
2019-03-26T00:30:46.856Z,2.13
2019-03-26T00:33:18.968Z,2.09
2019-03-26T00:35:51.511Z,2.06
2019-03-26T00:38:23.636Z,2.12
2019-03-26T00:40:56.164Z,2.03
2019-03-26T00:43:28.740Z,2.01
2019-03-26T00:46:00.853Z,2.01
2019-03-26T00:48:33.378Z,2.00
2019-03-26T00:51:06.385Z,1.99
2019-03-26T00:53:38.959Z,1.97
2019-03-26T00:56:11.914Z,2.00
2019-03-26T00:58:44.052Z,1.90
2019-03-26T01:01:16.271Z,1.99
2019-03-26T01:03:48.743Z,1.97
2019-03-26T01:06:20.868Z,1.99
2019-03-26T01:08:53.163Z,2.11
2019-03-26T01:11:25.291Z,2.13
2019-03-26T01:13:57.468Z,2.27
2019-03-26T01:16:29.616Z,2.27
2019-03-26T01:19:01.714Z,2.40
2019-03-26T01:21:33.776Z,2.47
2019-03-26T01:24:05.876Z,2.54
2019-03-26T01:26:38.498Z,2.61
2019-03-26T01:29:10.642Z,2.62
2019-03-26T01:31:43.497Z,2.72
2019-03-26T01:34:15.799Z,2.78
2019-03-26T01:36:47.858Z,2.83
2019-03-26T01:39:20.315Z,2.87
2019-03-26T01:41:53.599Z,2.90
2019-03-26T01:44:26.396Z,2.92
2019-03-26T01:46:58.829Z,2.99
2019-03-26T01:49:31.575Z,3.01
2019-03-26T01:52:03.673Z,3.02
2019-03-26T01:54:37.011Z,3.05
2019-03-26T01:57:09.080Z,3.11
2019-03-26T01:59:41.372Z,3.13
2019-03-26T02:02:13.616Z,3.13
2019-03-26T02:04:58.838Z,3.17
2019-03-26T02:07:20.138Z,3.16
2019-03-26T02:09:52.321Z,3.16
2019-03-26T02:12:24.822Z,3.18
2019-03-26T02:14:56.950Z,3.19
2019-03-26T02:17:29.278Z,3.19
2019-03-26T02:20:01.798Z,3.22
2019-03-26T02:22:34.375Z,3.24
2019-03-26T02:25:06.391Z,3.24
2019-03-26T02:27:38.635Z,3.29
2019-03-26T02:30:11.158Z,3.28
2019-03-26T02:32:43.328Z,3.31
2019-03-26T02:35:18.080Z,3.36
2019-03-26T02:37:50.000Z,3.40
2019-03-26T02:40:22.176Z,3.40
2019-03-26T02:42:54.314Z,3.42
2019-03-26T02:45:26.791Z,3.46
2019-03-26T02:47:58.919Z,3.49
2019-03-26T02:50:31.000Z,3.54
2019-03-26T02:53:03.907Z,3.54
2019-03-26T02:55:36.023Z,3.54
2019-03-26T02:58:08.126Z,3.55
2019-03-26T03:00:40.220Z,3.55
2019-03-26T03:03:12.636Z,3.59
2019-03-26T03:05:44.746Z,3.62
2019-03-26T03:08:17.237Z,3.67
2019-03-26T03:10:49.360Z,3.63
2019-03-26T03:13:22.068Z,3.64
2019-03-26T03:15:54.283Z,3.66
2019-03-26T03:18:26.441Z,3.69
2019-03-26T03:20:58.537Z,3.71
2019-03-26T03:23:30.950Z,3.73
2019-03-26T03:26:03.736Z,3.77
2019-03-26T03:28:35.837Z,3.75
2019-03-26T03:31:08.358Z,3.78
2019-03-26T03:33:40.943Z,3.79
2019-03-26T03:36:13.148Z,3.78
2019-03-26T03:38:45.422Z,3.80
2019-03-26T03:41:17.893Z,3.81
2019-03-26T03:43:50.281Z,3.81
2019-03-26T03:46:23.012Z,3.83
2019-03-26T03:48:57.082Z,3.81
2019-03-26T03:51:33.442Z,3.81
2019-03-26T03:54:06.925Z,3.81
2019-03-26T03:56:43.225Z,3.80
2019-03-26T03:59:15.407Z,3.83
2019-03-26T04:01:47.469Z,3.83
2019-03-26T04:04:20.076Z,3.83
2019-03-26T04:06:52.223Z,3.84
2019-03-26T04:09:24.585Z,3.86
2019-03-26T04:11:57.034Z,3.86
2019-03-26T04:14:29.783Z,3.85
2019-03-26T04:17:01.949Z,3.85
2019-03-26T04:19:34.053Z,3.84
2019-03-26T04:22:06.647Z,3.86
2019-03-26T04:24:40.112Z,3.85
2019-03-26T04:27:12.561Z,3.84
2019-03-26T04:29:44.628Z,3.82
2019-03-26T04:32:16.716Z,3.81
2019-03-26T04:34:49.096Z,3.81
2019-03-26T04:37:22.814Z,3.83
2019-03-26T04:39:54.894Z,3.81
2019-03-26T04:42:27.714Z,3.84
2019-03-26T04:45:00.955Z,3.83
2019-03-26T04:47:33.406Z,3.83
2019-03-26T04:50:06.407Z,3.86
2019-03-26T04:52:38.879Z,3.85
2019-03-26T04:55:10.970Z,3.87
2019-03-26T04:57:43.091Z,3.88
2019-03-26T05:00:15.594Z,3.88
2019-03-26T05:02:48.068Z,3.86
2019-03-26T05:05:20.797Z,3.86
2019-03-26T05:07:52.892Z,3.83
2019-03-26T05:10:25.346Z,3.84
2019-03-26T05:12:58.106Z,3.88
2019-03-26T05:15:30.190Z,3.87
2019-03-26T05:18:02.594Z,3.84
2019-03-26T05:20:34.717Z,3.82
2019-03-26T05:23:06.773Z,3.83
2019-03-26T05:25:39.251Z,3.83
2019-03-26T05:28:11.803Z,3.87
2019-03-26T05:30:44.421Z,3.83
2019-03-26T05:33:16.498Z,3.83
2019-03-26T05:35:51.511Z,3.83
2019-03-26T05:38:23.016Z,3.80
2019-03-26T05:40:55.143Z,3.81
2019-03-26T05:43:27.297Z,3.81
2019-03-26T05:45:59.564Z,3.82
2019-03-26T05:48:31.632Z,3.79
2019-03-26T05:51:04.148Z,3.82
2019-03-26T05:53:36.560Z,3.84
2019-03-26T05:56:08.706Z,3.80
2019-03-26T05:58:40.889Z,3.83
2019-03-26T06:01:12.981Z,3.88
2019-03-26T06:03:45.089Z,3.90
2019-03-26T06:06:17.305Z,3.90
2019-03-26T06:08:49.779Z,3.90
2019-03-26T06:11:21.874Z,3.91
2019-03-26T06:13:54.176Z,3.93
2019-03-26T06:16:37.919Z,3.93
2019-03-26T06:19:00.848Z,3.96
2019-03-26T06:21:33.397Z,4.00
2019-03-26T06:24:05.753Z,4.00
2019-03-26T06:26:38.177Z,4.02
2019-03-26T06:29:10.299Z,3.98
2019-03-26T06:31:43.583Z,4.00
2019-03-26T06:34:16.268Z,4.02
2019-03-26T06:36:48.398Z,4.05
2019-03-26T06:39:21.151Z,4.07
2019-03-26T06:41:54.028Z,4.06
2019-03-26T06:44:26.114Z,4.07
2019-03-26T06:46:58.269Z,4.13
2019-03-26T06:49:31.279Z,4.13
2019-03-26T06:52:03.406Z,4.18
2019-03-26T06:54:35.467Z,4.22
2019-03-26T06:57:07.847Z,4.28
2019-03-26T06:59:40.708Z,4.36
2019-03-26T07:02:13.537Z,4.42
2019-03-26T07:04:52.011Z,4.48
2019-03-26T07:07:31.396Z,4.49
2019-03-26T07:09:58.722Z,4.57
2019-03-26T07:12:31.085Z,4.65
2019-03-26T07:15:03.257Z,4.70
2019-03-26T07:17:36.062Z,4.77
2019-03-26T07:20:09.405Z,4.84
2019-03-26T07:22:41.880Z,4.88
2019-03-26T07:25:14.499Z,4.93
2019-03-26T07:27:48.011Z,4.98
2019-03-26T07:30:49.586Z,4.92
2019-03-26T07:33:21.663Z,4.99
2019-03-26T07:35:54.132Z,5.06
2019-03-26T07:38:26.630Z,5.09
2019-03-26T07:40:59.411Z,5.10
2019-03-26T07:43:31.960Z,5.12
2019-03-26T07:46:04.545Z,5.13
2019-03-26T07:48:36.637Z,5.14
2019-03-26T07:51:08.750Z,5.17
2019-03-26T07:53:41.074Z,5.16
2019-03-26T07:56:13.297Z,5.23
2019-03-26T07:58:45.391Z,5.29
2019-03-26T08:01:17.952Z,5.30
2019-03-26T08:03:50.600Z,5.53
2019-03-26T08:06:23.397Z,5.74
2019-03-26T08:08:56.351Z,5.69
2019-03-26T08:11:29.013Z,5.70
2019-03-26T08:14:01.615Z,5.74
2019-03-26T08:16:34.260Z,5.95
2019-03-26T08:19:06.837Z,6.02
2019-03-26T08:21:39.294Z,6.01
2019-03-26T08:24:11.534Z,6.03
2019-03-26T08:26:44.006Z,6.08
2019-03-26T08:29:16.164Z,6.15
2019-03-26T08:31:48.323Z,6.21
2019-03-26T08:34:20.435Z,6.26
2019-03-26T08:36:54.173Z,6.28
2019-03-26T08:39:26.652Z,6.36
2019-03-26T08:41:59.516Z,6.60
2019-03-26T08:44:31.666Z,6.67
2019-03-26T08:47:04.263Z,6.80
2019-03-26T08:49:37.159Z,6.83
2019-03-26T08:52:09.571Z,6.78
2019-03-26T08:54:41.982Z,6.76
2019-03-26T08:57:14.292Z,6.87
2019-03-26T08:59:54.240Z,6.90
2019-03-26T09:02:26.467Z,6.82
2019-03-26T09:04:59.075Z,6.84
2019-03-26T09:07:31.579Z,6.94
2019-03-26T09:10:04.050Z,6.93
2019-03-26T09:12:39.401Z,7.01
2019-03-26T09:15:14.483Z,6.73
2019-03-26T09:17:45.861Z,6.64
2019-03-26T09:20:18.276Z,6.58
2019-03-26T09:22:50.773Z,6.59
2019-03-26T09:25:24.225Z,6.62
2019-03-26T09:27:57.318Z,6.58
2019-03-26T09:30:30.770Z,6.57
2019-03-26T09:33:03.256Z,6.58
2019-03-26T09:35:35.878Z,6.75
2019-03-26T09:38:08.282Z,6.72
2019-03-26T09:40:40.443Z,6.88
2019-03-26T09:43:13.861Z,7.03
2019-03-26T09:45:46.672Z,7.32
2019-03-26T09:48:21.804Z,7.46
2019-03-26T09:50:54.032Z,7.82
2019-03-26T09:53:26.514Z,7.93
2019-03-26T09:55:59.211Z,8.31
2019-03-26T09:58:32.233Z,8.46
2019-03-26T10:01:05.070Z,8.81
2019-03-26T10:03:38.426Z,8.82
2019-03-26T10:06:22.802Z,9.17
2019-03-26T10:08:52.608Z,9.33
2019-03-26T10:11:22.019Z,9.39
2019-03-26T10:13:54.165Z,8.97
2019-03-26T10:16:27.308Z,8.91
2019-03-26T10:19:24.766Z,8.78
2019-03-26T10:22:15.089Z,8.60
2019-03-26T10:25:11.520Z,8.38
2019-03-26T10:28:00.826Z,8.65
2019-03-26T10:31:08.782Z,8.75
2019-03-26T10:34:01.005Z,8.75
2019-03-26T10:37:04.798Z,8.84
2019-03-26T10:39:54.085Z,8.91
2019-03-26T10:42:43.718Z,8.78
2019-03-26T10:45:27.650Z,8.83
2019-03-26T10:48:14.875Z,8.73
2019-03-26T10:51:00.493Z,8.82
2019-03-26T10:53:44.161Z,8.43
2019-03-26T10:56:34.400Z,8.58
2019-03-26T10:59:05.372Z,8.45
2019-03-26T11:08:21.955Z,9.15
2019-03-26T11:10:54.578Z,9.04
2019-03-26T11:13:27.356Z,9.28
2019-03-26T11:15:59.840Z,9.18
2019-03-26T11:18:31.954Z,9.23
2019-03-26T11:21:23.778Z,9.08
2019-03-26T11:23:57.246Z,9.24
2019-03-26T11:26:29.343Z,9.17
2019-03-26T11:29:01.470Z,9.19
2019-03-26T11:31:33.978Z,8.94
2019-03-26T11:34:06.231Z,8.86
2019-03-26T11:36:38.300Z,8.70
2019-03-26T11:39:11.690Z,8.73
2019-03-26T11:41:44.088Z,8.77
2019-03-26T11:44:16.211Z,8.66
2019-03-26T11:46:48.619Z,8.93
2019-03-26T11:49:20.985Z,8.90
2019-03-26T11:51:53.082Z,9.01
2019-03-26T11:54:25.468Z,8.95
2019-03-26T11:56:58.337Z,9.08
2019-03-26T11:59:30.774Z,9.17
2019-03-26T12:02:04.550Z,9.44
2019-03-26T12:04:36.918Z,9.40
2019-03-26T12:07:09.537Z,9.31
2019-03-26T12:09:46.560Z,9.61
2019-03-26T12:12:16.987Z,9.41
2019-03-26T12:14:49.878Z,9.18
2019-03-26T12:17:23.565Z,9.18
2019-03-26T12:19:56.151Z,9.12
2019-03-26T12:22:31.321Z,8.96
2019-03-26T12:25:02.700Z,8.91
2019-03-26T12:27:36.472Z,8.58
2019-03-26T12:30:09.432Z,8.65
2019-03-26T12:32:41.797Z,8.30
2019-03-26T12:35:28.681Z,8.24
2019-03-26T12:38:00.869Z,8.23
2019-03-26T12:40:32.941Z,8.24
2019-03-26T12:43:05.142Z,8.06
2019-03-26T12:45:37.187Z,8.13
2019-03-26T12:48:10.015Z,8.04
2019-03-26T12:50:42.252Z,8.03
2019-03-26T12:53:15.667Z,7.96
2019-03-26T12:55:48.203Z,7.90
2019-03-26T12:58:30.974Z,7.88
2019-03-26T13:00:54.424Z,7.74
2019-03-26T13:03:26.433Z,7.73
2019-03-26T13:05:58.934Z,7.74
2019-03-26T13:08:30.998Z,7.75
2019-03-26T13:11:03.272Z,7.76
2019-03-26T13:13:35.370Z,7.68
2019-03-26T13:16:07.597Z,7.70
2019-03-26T13:18:39.978Z,7.73
2019-03-26T13:21:12.096Z,7.69
2019-03-26T13:23:45.486Z,7.70
2019-03-26T13:26:17.803Z,7.67
2019-03-26T13:28:50.611Z,7.65
2019-03-26T13:31:22.985Z,7.67
2019-03-26T13:33:55.047Z,7.66
2019-03-26T13:36:27.517Z,7.59
2019-03-26T13:38:59.617Z,7.62
2019-03-26T13:41:32.031Z,7.58
2019-03-26T13:44:04.124Z,7.59
2019-03-26T13:46:36.505Z,7.58
2019-03-26T13:49:08.598Z,7.56
2019-03-26T13:51:41.141Z,7.59
2019-03-26T13:54:13.654Z,7.57
2019-03-26T13:56:50.284Z,7.65
2019-03-26T13:59:33.948Z,7.62
2019-03-26T14:02:21.251Z,7.64
2019-03-26T14:05:06.564Z,7.61
2019-03-26T14:07:39.172Z,7.62
2019-03-26T14:10:19.400Z,7.60
2019-03-26T14:13:19.790Z,7.60
2019-03-26T14:15:57.715Z,7.64
2019-03-26T14:18:42.707Z,7.58
2019-03-26T14:21:18.383Z,7.59
2019-03-26T14:24:00.145Z,7.57
2019-03-26T14:26:46.338Z,7.53
2019-03-26T14:29:27.961Z,7.50
2019-03-26T14:32:07.890Z,7.47
2019-03-26T14:34:51.796Z,7.45
2019-03-26T14:37:51.191Z,7.39
2019-03-26T14:40:27.318Z,7.42
2019-03-26T14:43:21.589Z,7.35
2019-03-26T14:46:04.641Z,7.41
2019-03-26T14:48:52.631Z,7.39
2019-03-26T14:51:24.350Z,7.40
2019-03-26T14:53:59.413Z,7.38
2019-03-26T14:56:31.509Z,7.40
2019-03-26T14:59:03.936Z,7.39
2019-03-26T15:01:36.431Z,7.42
2019-03-26T15:04:08.547Z,7.40
2019-03-26T15:06:40.662Z,7.40
2019-03-26T15:09:13.044Z,7.41
2019-03-26T15:11:45.566Z,7.39
2019-03-26T15:14:17.774Z,7.40
2019-03-26T15:16:50.452Z,7.37
2019-03-26T15:19:23.281Z,7.30
2019-03-26T15:21:56.084Z,7.23
2019-03-26T15:24:28.968Z,7.21
2019-03-26T15:27:01.593Z,7.16
2019-03-26T15:29:33.956Z,7.15
2019-03-26T15:32:06.269Z,7.13
2019-03-26T15:34:38.857Z,7.13
2019-03-26T15:37:11.005Z,7.13
2019-03-26T15:39:43.073Z,7.11
2019-03-26T15:42:15.234Z,7.15
2019-03-26T15:44:47.314Z,7.09
2019-03-26T15:47:19.438Z,7.06
2019-03-26T15:49:51.539Z,7.03
2019-03-26T15:52:23.635Z,7.02
2019-03-26T15:54:56.033Z,6.96
2019-03-26T15:57:28.140Z,6.95
2019-03-26T16:00:00.973Z,6.90
2019-03-26T16:02:34.110Z,6.92
2019-03-26T16:05:06.768Z,6.86
2019-03-26T16:07:38.888Z,6.90
2019-03-26T16:10:12.549Z,6.93
2019-03-26T16:12:44.717Z,6.95
2019-03-26T16:15:16.924Z,6.95
2019-03-26T16:17:49.026Z,6.95
2019-03-26T16:20:21.131Z,6.99
2019-03-26T16:22:53.224Z,7.00
2019-03-26T16:25:25.417Z,7.01
2019-03-26T16:27:57.876Z,7.01
2019-03-26T16:30:30.939Z,7.05
2019-03-26T16:33:03.957Z,7.09
2019-03-26T16:35:36.400Z,7.08
2019-03-26T16:38:08.835Z,7.12
2019-03-26T16:40:40.888Z,7.13
2019-03-26T16:43:13.049Z,7.09
2019-03-26T16:45:45.093Z,7.10
2019-03-26T16:48:17.202Z,7.11
2019-03-26T16:50:49.823Z,7.10
2019-03-26T16:53:22.260Z,7.08
2019-03-26T16:55:54.419Z,7.06
2019-03-26T16:58:26.842Z,7.05
2019-03-26T17:00:59.333Z,7.01
2019-03-26T17:03:32.937Z,7.04
2019-03-26T17:06:05.167Z,7.02
2019-03-26T17:08:37.238Z,7.01
2019-03-26T17:11:09.368Z,6.98
2019-03-26T17:13:41.709Z,7.00
2019-03-26T17:16:13.805Z,6.99
2019-03-26T17:18:45.894Z,6.94
2019-03-26T17:21:18.488Z,6.92
2019-03-26T17:23:50.819Z,6.89
2019-03-26T17:26:23.622Z,6.84
2019-03-26T17:28:55.744Z,6.86
2019-03-26T17:31:28.265Z,6.79
2019-03-26T17:34:00.563Z,6.80
2019-03-26T17:36:33.021Z,6.77
2019-03-26T17:39:07.817Z,6.68
2019-03-26T17:41:40.172Z,6.66
2019-03-26T17:44:13.077Z,6.66
2019-03-26T17:46:45.163Z,6.62
2019-03-26T17:49:18.093Z,6.60
2019-03-26T17:51:50.178Z,6.62
2019-03-26T17:54:22.634Z,6.59
2019-03-26T17:56:55.014Z,6.57
2019-03-26T17:59:27.094Z,6.56
2019-03-26T18:01:59.182Z,6.57
2019-03-26T18:04:32.683Z,6.52
2019-03-26T18:07:05.563Z,6.54
2019-03-26T18:09:37.824Z,6.52
2019-03-26T18:12:10.544Z,6.54
2019-03-26T18:14:43.084Z,6.50
2019-03-26T18:17:15.484Z,6.51
2019-03-26T18:19:47.949Z,6.50
2019-03-26T18:22:20.553Z,6.50
2019-03-26T18:24:52.578Z,6.49
2019-03-26T18:27:25.468Z,6.50
2019-03-26T18:29:57.584Z,6.51
2019-03-26T18:32:29.642Z,6.49
2019-03-26T18:35:02.063Z,6.52
2019-03-26T18:37:34.154Z,6.52
2019-03-26T18:40:07.232Z,6.54
2019-03-26T18:42:44.188Z,6.51
2019-03-26T18:45:13.209Z,6.51
2019-03-26T18:47:45.567Z,6.52
2019-03-26T18:50:18.497Z,6.50
2019-03-26T18:52:50.593Z,6.51
2019-03-26T18:55:25.227Z,6.49
2019-03-26T18:57:57.261Z,6.53
2019-03-26T19:00:40.418Z,6.51
2019-03-26T19:03:13.721Z,6.51
2019-03-26T19:05:45.803Z,6.50
2019-03-26T19:08:18.515Z,6.47
2019-03-26T19:10:50.571Z,6.48
2019-03-26T19:13:22.667Z,6.50
2019-03-26T19:15:55.220Z,6.48
2019-03-26T19:18:27.644Z,6.52
2019-03-26T19:21:02.383Z,6.53
2019-03-26T19:23:33.500Z,6.54
2019-03-26T19:26:06.445Z,6.50
2019-03-26T19:28:38.585Z,6.52
2019-03-26T19:31:10.665Z,6.53
2019-03-26T19:33:42.764Z,6.52
2019-03-26T19:36:15.481Z,6.53
2019-03-26T19:38:47.622Z,6.52
2019-03-26T19:41:19.698Z,6.51
2019-03-26T19:43:51.790Z,6.52
2019-03-26T19:46:23.900Z,6.49
2019-03-26T19:48:56.309Z,6.50
2019-03-26T19:51:28.715Z,6.49
2019-03-26T19:54:01.215Z,6.47
2019-03-26T19:56:33.649Z,6.47
2019-03-26T19:59:05.712Z,6.51
2019-03-26T20:01:38.139Z,6.49
2019-03-26T20:04:10.800Z,6.52
2019-03-26T20:06:43.163Z,6.49
2019-03-26T20:09:15.263Z,6.49
2019-03-26T20:11:47.348Z,6.52
2019-03-26T20:14:20.058Z,6.52
2019-03-26T20:16:52.766Z,6.51
2019-03-26T20:19:25.463Z,6.49
2019-03-26T20:21:57.539Z,6.47
2019-03-26T20:24:30.645Z,6.48
2019-03-26T20:27:02.961Z,6.52
2019-03-26T20:29:35.055Z,6.52
2019-03-26T20:32:07.501Z,6.52
2019-03-26T20:34:39.601Z,6.49
2019-03-26T20:37:11.805Z,6.49
2019-03-26T20:39:43.969Z,6.48
2019-03-26T20:42:16.470Z,6.49
2019-03-26T20:44:48.562Z,6.48
2019-03-26T20:47:20.730Z,6.48
2019-03-26T20:49:53.154Z,6.48
2019-03-26T20:52:25.234Z,6.45
2019-03-26T20:54:57.755Z,6.47
2019-03-26T20:57:31.136Z,6.43
2019-03-26T21:00:03.231Z,6.44
2019-03-26T21:02:35.641Z,6.39
2019-03-26T21:05:09.127Z,6.41
2019-03-26T21:07:41.204Z,6.41
2019-03-26T21:10:13.910Z,6.44
2019-03-26T21:12:46.005Z,6.41
2019-03-26T21:15:18.467Z,6.43
2019-03-26T21:17:50.642Z,6.43
2019-03-26T21:20:22.677Z,6.44
2019-03-26T21:22:55.692Z,6.44
2019-03-26T21:25:28.687Z,6.41
2019-03-26T21:28:01.244Z,6.39
2019-03-26T21:30:33.364Z,6.39
2019-03-26T21:33:05.676Z,6.37
2019-03-26T21:35:37.801Z,6.37
2019-03-26T21:38:10.001Z,6.40
2019-03-26T21:40:42.105Z,6.36
2019-03-26T21:43:14.220Z,6.37
2019-03-26T21:45:46.213Z,6.33
2019-03-26T21:48:18.402Z,6.36
2019-03-26T21:50:51.146Z,6.34
2019-03-26T21:53:24.149Z,6.35
2019-03-26T21:56:06.320Z,6.33
2019-03-26T21:58:31.407Z,6.29
2019-03-26T22:01:03.480Z,6.24
2019-03-26T22:03:36.247Z,6.26
2019-03-26T22:06:08.621Z,6.24
2019-03-26T22:08:40.804Z,6.23
2019-03-26T22:11:13.332Z,6.20
2019-03-26T22:13:45.420Z,6.18
2019-03-26T22:16:18.120Z,6.16
2019-03-26T22:18:50.210Z,6.14
2019-03-26T22:21:22.269Z,6.12
2019-03-26T22:23:55.742Z,6.13
2019-03-26T22:26:28.658Z,6.10
2019-03-26T22:29:01.334Z,6.10
2019-03-26T22:31:35.197Z,6.13
2019-03-26T22:34:07.673Z,6.09
2019-03-26T22:36:39.738Z,6.10
2019-03-26T22:39:11.872Z,6.11
2019-03-26T22:41:44.029Z,6.12
2019-03-26T22:44:16.140Z,6.12
2019-03-26T22:46:48.188Z,6.09
2019-03-26T22:49:20.889Z,6.08
2019-03-26T22:51:53.006Z,6.07
2019-03-26T22:54:25.478Z,6.02
2019-03-26T22:56:57.597Z,6.00
2019-03-26T22:59:29.663Z,5.96
2019-03-26T23:02:02.090Z,5.93
2019-03-26T23:04:35.482Z,5.92
2019-03-26T23:07:07.735Z,5.90
2019-03-26T23:09:39.807Z,5.90
2019-03-26T23:12:12.258Z,5.82
2019-03-26T23:14:45.570Z,5.79
2019-03-26T23:17:18.132Z,5.79
2019-03-26T23:19:50.215Z,5.80
2019-03-26T23:22:22.300Z,5.75
2019-03-26T23:24:55.142Z,5.71
2019-03-26T23:27:27.269Z,5.73
2019-03-26T23:30:00.333Z,5.74
2019-03-26T23:32:33.146Z,5.72
2019-03-26T23:35:05.533Z,5.72
2019-03-26T23:40:14.702Z,5.73
2019-03-26T23:42:46.759Z,5.63
2019-03-26T23:45:19.343Z,5.60
2019-03-26T23:47:51.824Z,5.55
2019-03-26T23:50:24.187Z,5.51
2019-03-26T23:52:56.995Z,5.52
2019-03-26T23:55:29.718Z,5.45
2019-03-26T23:58:01.925Z,5.42
